createdAt,value
2018-10-07T00:00:34.578Z,97469.22
2018-10-07T00:03:06.865Z,97471.27
2018-10-07T00:05:39.202Z,97475.12
2018-10-07T00:08:11.453Z,97475.64
2018-10-07T00:10:43.718Z,97478.11
2018-10-07T00:13:16.069Z,97480.33
2018-10-07T00:15:48.355Z,97479.84
2018-10-07T00:18:20.624Z,97480.96
2018-10-07T00:20:52.997Z,97479.73
2018-10-07T00:23:25.281Z,97476.95
2018-10-07T00:25:57.547Z,97478.23
2018-10-07T00:28:29.845Z,97476.53
2018-10-07T00:31:02.195Z,97474.84
2018-10-07T00:33:34.461Z,97478.23
2018-10-07T00:36:06.722Z,97477.78
2018-10-07T00:38:39.165Z,97477.48
2018-10-07T00:41:11.521Z,97478.30
2018-10-07T00:43:43.822Z,97478.30
2018-10-07T00:46:16.089Z,97484.25
2018-10-07T00:48:48.337Z,97481.53
2018-10-07T00:51:20.837Z,97486.49
2018-10-07T00:53:53.336Z,97483.74
2018-10-07T00:56:25.622Z,97497.20
2018-10-07T00:58:57.952Z,97491.64
2018-10-07T01:01:30.358Z,97492.06
2018-10-07T01:04:03.018Z,97495.92
2018-10-07T01:06:35.324Z,97498.03
2018-10-07T01:09:09.025Z,97498.90
2018-10-07T01:11:41.281Z,97491.72
2018-10-07T01:14:13.561Z,97489.26
2018-10-07T01:16:45.876Z,97488.66
2018-10-07T01:19:18.164Z,97488.89
2018-10-07T01:21:50.517Z,97488.44
2018-10-07T01:24:22.785Z,97487.48
2018-10-07T01:26:55.072Z,97502.53
2018-10-07T01:29:27.338Z,97494.94
2018-10-07T01:31:59.570Z,97500.12
2018-10-07T01:34:31.831Z,97501.36
2018-10-07T01:37:04.251Z,97496.48
2018-10-07T01:39:36.519Z,97501.78
2018-10-07T01:42:08.757Z,97499.02
2018-10-07T01:44:41.002Z,97496.48
2018-10-07T01:47:13.300Z,97502.88
2018-10-07T01:49:45.596Z,97495.47
2018-10-07T01:52:18.022Z,97505.62
2018-10-07T01:54:50.261Z,97499.96
2018-10-07T01:57:22.505Z,97505.09
2018-10-07T01:59:54.874Z,97509.52
2018-10-07T02:02:27.196Z,97507.24
2018-10-07T02:04:59.464Z,97514.61
2018-10-07T02:07:31.802Z,97506.83
2018-10-07T02:10:04.061Z,97508.11
2018-10-07T02:12:36.428Z,97506.30
2018-10-07T02:15:08.671Z,97501.45
2018-10-07T02:17:40.924Z,97510.03
2018-10-07T02:20:13.388Z,97509.23
2018-10-07T02:22:45.607Z,97505.39
2018-10-07T02:25:17.949Z,97502.45
2018-10-07T02:27:50.198Z,97504.55
2018-10-07T02:30:22.457Z,97510.16
2018-10-07T02:32:54.669Z,97524.69
2018-10-07T02:35:27.468Z,97526.27
2018-10-07T02:37:59.780Z,97529.91
2018-10-07T02:40:32.064Z,97537.83
2018-10-07T02:43:04.302Z,97538.63
2018-10-07T02:45:36.695Z,97537.88
2018-10-07T02:48:08.959Z,97541.36
2018-10-07T02:50:41.376Z,97543.06
2018-10-07T02:53:13.827Z,97545.70
2018-10-07T02:55:45.937Z,97539.42
2018-10-07T02:58:18.325Z,97543.49
2018-10-07T03:00:50.597Z,97551.31
2018-10-07T03:03:22.869Z,97546.72
2018-10-07T03:05:55.209Z,97554.13
2018-10-07T03:08:27.605Z,97551.82
2018-10-07T03:10:59.908Z,97554.47
2018-10-07T03:13:32.190Z,97555.88
2018-10-07T03:16:04.392Z,97567.09
2018-10-07T03:18:36.704Z,97565.69
2018-10-07T03:21:08.962Z,97567.18
2018-10-07T03:23:41.233Z,97570.20
2018-10-07T03:26:13.500Z,97560.97
2018-10-07T03:28:45.794Z,97566.56
2018-10-07T03:31:18.070Z,97565.23
2018-10-07T03:33:50.314Z,97568.34
2018-10-07T03:36:22.557Z,97566.23
2018-10-07T03:38:54.817Z,97566.35
2018-10-07T03:41:27.141Z,97565.81
2018-10-07T03:43:59.417Z,97571.06
2018-10-07T03:46:31.692Z,97561.83
2018-10-07T03:49:04.028Z,97566.02
2018-10-07T03:51:36.283Z,97571.45
2018-10-07T03:54:08.515Z,97576.98
2018-10-07T03:56:40.784Z,97572.48
2018-10-07T03:59:13.037Z,97577.08
2018-10-07T04:01:45.361Z,97580.72
2018-10-07T04:04:17.610Z,97579.07
2018-10-07T04:06:49.885Z,97580.23
2018-10-07T04:09:22.149Z,97582.25
2018-10-07T04:11:54.408Z,97584.15
2018-10-07T04:14:26.668Z,97590.11
2018-10-07T04:16:59.783Z,97588.35
2018-10-07T04:19:32.003Z,97586.35
2018-10-07T04:22:04.269Z,97591.00
2018-10-07T04:24:36.569Z,97594.39
2018-10-07T04:27:08.938Z,97601.69
2018-10-07T04:29:41.196Z,97600.31
2018-10-07T04:32:13.453Z,97611.58
2018-10-07T04:34:45.677Z,97614.28
2018-10-07T04:37:18.016Z,97613.88
2018-10-07T04:39:50.256Z,97604.49
2018-10-07T04:42:22.582Z,97600.10
2018-10-07T04:44:54.888Z,97608.94
2018-10-07T04:47:27.161Z,97612.32
2018-10-07T04:49:59.644Z,97613.25
2018-10-07T04:52:31.913Z,97617.09
2018-10-07T04:55:04.330Z,97619.84
2018-10-07T04:57:36.722Z,97621.62
2018-10-07T05:00:09.086Z,97628.63
2018-10-07T05:02:41.252Z,97632.73
2018-10-07T05:05:13.721Z,97628.95
2018-10-07T05:07:46.004Z,97630.09
2018-10-07T05:10:58.197Z,97637.73
2018-10-07T05:13:44.304Z,97632.33
2018-10-07T05:16:24.089Z,97643.91
2018-10-07T05:18:56.761Z,97652.05
2018-10-07T05:21:29.127Z,97652.41
2018-10-07T05:24:01.383Z,97652.36
2018-10-07T05:26:33.692Z,97652.68
2018-10-07T05:29:05.963Z,97658.22
2018-10-07T05:31:38.245Z,97659.73
2018-10-07T05:34:10.449Z,97666.28
2018-10-07T05:36:42.836Z,97661.77
2018-10-07T05:39:15.257Z,97660.81
2018-10-07T05:41:47.468Z,97668.81
2018-10-07T05:44:19.816Z,97672.39
2018-10-07T05:46:52.145Z,97670.59
2018-10-07T05:49:24.451Z,97676.03
2018-10-07T05:51:56.737Z,97677.46
2018-10-07T05:54:31.462Z,97675.16
2018-10-07T05:57:04.655Z,97678.59
2018-10-07T05:59:42.484Z,97684.19
2018-10-07T06:02:16.099Z,97689.07
2018-10-07T06:04:53.961Z,97685.44
2018-10-07T06:07:43.924Z,97688.05
2018-10-07T06:12:26.467Z,97675.59
2018-10-07T06:15:10.333Z,97677.63
2018-10-07T06:17:42.751Z,97684.05
2018-10-07T06:20:15.054Z,97682.58
2018-10-07T06:22:47.411Z,97687.66
2018-10-07T06:25:19.981Z,97696.12
2018-10-07T06:27:53.068Z,97702.16
2018-10-07T06:30:25.630Z,97700.59
2018-10-07T06:32:58.035Z,97707.91
2018-10-07T06:35:32.638Z,97713.30
2018-10-07T06:38:07.255Z,97713.83
2018-10-07T06:40:39.689Z,97727.61
2018-10-07T06:43:12.172Z,97727.20
2018-10-07T06:45:44.587Z,97733.85
2018-10-07T06:48:16.941Z,97743.92
2018-10-07T06:50:49.334Z,97739.09
2018-10-07T06:53:22.213Z,97743.82
2018-10-07T06:55:54.884Z,97745.39
2018-10-07T06:58:27.432Z,97748.59
2018-10-07T07:01:03.540Z,97749.28
2018-10-07T07:03:38.017Z,97754.56
2018-10-07T07:06:10.413Z,97762.63
2018-10-07T07:08:42.693Z,97760.02
2018-10-07T07:11:15.121Z,97764.15
2018-10-07T07:13:47.442Z,97756.34
2018-10-07T07:16:19.982Z,97756.94
2018-10-07T07:18:52.706Z,97760.95
2018-10-07T07:21:25.064Z,97757.80
2018-10-07T07:23:57.389Z,97771.22
2018-10-07T07:26:30.727Z,97769.63
2018-10-07T07:29:04.216Z,97778.84
2018-10-07T07:31:37.161Z,97778.99
2018-10-07T07:34:09.481Z,97775.38
2018-10-07T07:36:41.751Z,97780.02
2018-10-07T07:39:14.057Z,97785.05
2018-10-07T07:41:46.427Z,97787.15
2018-10-07T07:44:18.806Z,97793.34
2018-10-07T07:46:51.541Z,97798.84
2018-10-07T07:49:24.549Z,97795.59
2018-10-07T07:51:57.097Z,97795.86
2018-10-07T07:54:29.674Z,97796.61
2018-10-07T07:57:04.194Z,97805.15
2018-10-07T07:59:36.837Z,97802.50
2018-10-07T08:02:09.125Z,97808.50
2018-10-07T08:04:41.435Z,97812.74
2018-10-07T08:07:13.842Z,97815.59
2018-10-07T08:09:46.215Z,97818.97
2018-10-07T08:12:18.501Z,97823.13
2018-10-07T08:14:51.237Z,97824.32
2018-10-07T08:17:24.498Z,97823.76
2018-10-07T08:19:56.798Z,97821.92
2018-10-07T08:22:30.091Z,97832.69
2018-10-07T08:25:04.561Z,97829.00
2018-10-07T08:27:37.429Z,97832.02
2018-10-07T08:30:09.985Z,97830.82
2018-10-07T08:32:42.386Z,97830.53
2018-10-07T08:35:14.912Z,97829.89
2018-10-07T08:37:47.266Z,97832.66
2018-10-07T08:40:20.274Z,97831.06
2018-10-07T08:42:53.381Z,97829.14
2018-10-07T08:45:25.750Z,97830.23
2018-10-07T08:47:58.082Z,97827.80
2018-10-07T08:50:31.185Z,97821.00
2018-10-07T08:53:04.373Z,97824.61
2018-10-07T08:55:37.081Z,97819.94
2018-10-07T08:58:09.688Z,97819.17
2018-10-07T09:00:42.120Z,97822.43
2018-10-07T09:03:14.547Z,97822.98
2018-10-07T09:05:47.014Z,97826.30
2018-10-07T09:08:19.501Z,97825.56
2018-10-07T09:10:52.035Z,97821.42
2018-10-07T09:13:24.777Z,97821.96
2018-10-07T09:15:57.544Z,97826.88
2018-10-07T09:18:31.890Z,97831.00
2018-10-07T09:21:05.204Z,97834.66
2018-10-07T09:23:37.763Z,97834.30
2018-10-07T09:26:10.635Z,97837.38
2018-10-07T09:28:43.197Z,97839.56
2018-10-07T09:31:15.666Z,97834.39
2018-10-07T09:33:48.041Z,97841.22
2018-10-07T09:36:20.372Z,97843.77
2018-10-07T09:38:52.723Z,97844.95
2018-10-07T09:41:25.213Z,97852.77
2018-10-07T09:43:57.645Z,97847.92
2018-10-07T09:46:31.098Z,97843.09
2018-10-07T09:49:04.650Z,97847.33
2018-10-07T09:51:37.326Z,97844.67
2018-10-07T09:54:09.961Z,97848.55
2018-10-07T09:56:42.378Z,97847.26
2018-10-07T09:59:14.811Z,97844.72
2018-10-07T10:01:47.203Z,97845.23
2018-10-07T10:04:19.649Z,97846.19
2018-10-07T10:06:53.274Z,97848.34
2018-10-07T10:09:25.764Z,97849.64
2018-10-07T10:11:58.225Z,97858.34
2018-10-07T10:14:31.450Z,97869.74
2018-10-07T10:17:12.026Z,97871.91
2018-10-07T10:19:56.717Z,97863.56
2018-10-07T10:22:43.445Z,97868.72
2018-10-07T10:26:37.371Z,97871.76
2018-10-07T10:29:18.202Z,97872.48
2018-10-07T10:32:33.011Z,97874.98
2018-10-07T10:35:17.522Z,97876.14
2018-10-07T10:38:19.806Z,97875.96
2018-10-07T10:40:57.888Z,97872.79
2018-10-07T10:44:38.415Z,97866.13
2018-10-07T10:47:16.507Z,97866.39
2018-10-07T10:50:30.846Z,97868.83
2018-10-07T10:53:42.439Z,97866.56
2018-10-07T10:56:22.325Z,97864.42
2018-10-07T10:59:11.993Z,97863.19
2018-10-07T11:01:54.817Z,97871.22
2018-10-07T11:04:29.002Z,97867.37
2018-10-07T11:07:05.389Z,97866.73
2018-10-07T11:10:14.550Z,97860.63
2018-10-07T11:13:56.959Z,97863.23
2018-10-07T11:17:05.448Z,97860.16
2018-10-07T11:19:42.276Z,97858.40
2018-10-07T11:22:20.566Z,97855.16
2018-10-07T11:25:06.220Z,97853.81
2018-10-07T11:27:58.197Z,97850.05
2018-10-07T11:30:39.957Z,97857.33
2018-10-07T11:33:52.357Z,97853.81
2018-10-07T11:36:37.304Z,97854.69
2018-10-07T11:39:19.755Z,97855.04
2018-10-07T11:42:03.859Z,97853.38
2018-10-07T11:44:50.803Z,97860.16
2018-10-07T11:48:29.904Z,97856.70
2018-10-07T11:51:16.273Z,97858.08
2018-10-07T11:53:54.508Z,97855.45
2018-10-07T11:56:26.857Z,97855.50
2018-10-07T11:58:59.369Z,97858.16
2018-10-07T12:01:31.986Z,97852.00
2018-10-07T12:04:04.927Z,97854.61
2018-10-07T12:06:37.367Z,97857.62
2018-10-07T12:09:09.988Z,97859.89
2018-10-07T12:11:42.293Z,97861.63
2018-10-07T12:14:14.680Z,97866.38
2018-10-07T12:16:47.034Z,97855.55
2018-10-07T12:19:19.637Z,97860.38
2018-10-07T12:21:52.037Z,97861.83
2018-10-07T12:24:24.812Z,97866.89
2018-10-07T12:26:57.523Z,97869.94
2018-10-07T12:29:30.864Z,97868.27
2018-10-07T12:32:03.806Z,97869.42
2018-10-07T12:34:36.418Z,97870.31
2018-10-07T12:37:09.007Z,97875.94
2018-10-07T12:39:41.333Z,97871.24
2018-10-07T12:42:13.714Z,97873.05
2018-10-07T12:44:46.068Z,97872.16
2018-10-07T12:47:18.453Z,97870.93
2018-10-07T12:49:50.939Z,97867.10
2018-10-07T12:52:23.918Z,97872.21
2018-10-07T12:54:56.244Z,97873.17
2018-10-07T12:57:28.596Z,97870.14
2018-10-07T13:00:01.527Z,97878.33
2018-10-07T13:02:34.596Z,97877.88
2018-10-07T13:05:07.725Z,97881.91
2018-10-07T13:07:40.036Z,97879.45
2018-10-07T13:10:12.531Z,97881.18
2018-10-07T13:12:44.813Z,97879.03
2018-10-07T13:15:17.189Z,97882.13
2018-10-07T13:17:49.697Z,97879.12
2018-10-07T13:20:22.070Z,97879.60
2018-10-07T13:22:54.556Z,97890.52
2018-10-07T13:25:27.416Z,97889.20
2018-10-07T13:28:00.087Z,97887.05
2018-10-07T13:30:32.910Z,97893.62
2018-10-07T13:33:05.411Z,97888.84
2018-10-07T13:35:38.189Z,97879.64
2018-10-07T13:38:10.516Z,97880.59
2018-10-07T13:40:42.883Z,97884.07
2018-10-07T13:43:15.505Z,97881.05
2018-10-07T13:45:48.025Z,97878.88
2018-10-07T13:48:20.363Z,97881.06
2018-10-07T13:50:52.714Z,97877.97
2018-10-07T13:53:25.113Z,97881.06
2018-10-07T13:55:57.393Z,97887.23
2018-10-07T13:58:29.988Z,97885.83
2018-10-07T14:01:02.769Z,97890.19
2018-10-07T14:03:35.249Z,97884.61
2018-10-07T14:06:07.698Z,97881.05
2018-10-07T14:08:40.429Z,97878.09
2018-10-07T14:11:12.777Z,97878.84
2018-10-07T14:13:45.102Z,97882.72
2018-10-07T14:16:17.458Z,97874.50
2018-10-07T14:18:49.785Z,97877.08
2018-10-07T14:21:22.240Z,97878.84
2018-10-07T14:23:54.769Z,97876.27
2018-10-07T14:26:27.117Z,97876.63
2018-10-07T14:29:00.361Z,97880.11
2018-10-07T14:31:33.394Z,97874.84
2018-10-07T14:34:06.089Z,97878.25
2018-10-07T14:36:38.704Z,97884.38
2018-10-07T14:39:12.349Z,97878.25
2018-10-07T14:41:44.702Z,97876.95
2018-10-07T14:44:17.022Z,97875.19
2018-10-07T14:46:49.358Z,97878.77
2018-10-07T14:49:22.117Z,97880.92
2018-10-07T14:51:54.650Z,97874.39
2018-10-07T14:54:27.058Z,97882.61
2018-10-07T14:56:59.632Z,97877.84
2018-10-07T14:59:32.506Z,97883.05
2018-10-07T15:02:05.205Z,97882.67
2018-10-07T15:04:37.762Z,97886.58
2018-10-07T15:07:10.072Z,97889.20
2018-10-07T15:09:42.423Z,97888.31
2018-10-07T15:12:14.745Z,97885.68
2018-10-07T15:14:47.140Z,97883.58
2018-10-07T15:17:19.748Z,97890.09
2018-10-07T15:19:52.243Z,97885.67
2018-10-07T15:22:24.818Z,97888.67
2018-10-07T15:24:57.190Z,97893.05
2018-10-07T15:27:29.887Z,97893.50
2018-10-07T15:30:02.571Z,97893.45
2018-10-07T15:32:35.152Z,97901.23
2018-10-07T15:35:07.880Z,97898.56
2018-10-07T15:37:40.370Z,97898.98
2018-10-07T15:40:12.785Z,97891.53
2018-10-07T15:42:45.332Z,97898.86
2018-10-07T15:45:17.760Z,97905.70
2018-10-07T15:47:50.271Z,97914.03
2018-10-07T15:50:22.664Z,97904.82
2018-10-07T15:52:55.088Z,97913.05
2018-10-07T15:55:27.590Z,97911.23
2018-10-07T15:58:00.236Z,97920.33
2018-10-07T16:00:33.416Z,97923.74
2018-10-07T16:03:06.191Z,97924.16
2018-10-07T16:05:38.903Z,97921.48
2018-10-07T16:08:11.377Z,97924.86
2018-10-07T16:10:43.907Z,97926.14
2018-10-07T16:13:16.348Z,97936.47
2018-10-07T16:15:48.827Z,97937.27
2018-10-07T16:18:21.308Z,97939.80
2018-10-07T16:20:53.650Z,97942.74
2018-10-07T16:23:26.126Z,97945.34
2018-10-07T16:25:58.712Z,97944.41
2018-10-07T16:28:31.957Z,97946.51
2018-10-07T16:31:05.490Z,97950.84
2018-10-07T16:33:38.067Z,97956.88
2018-10-07T16:36:10.409Z,97958.15
2018-10-07T16:38:42.844Z,97964.19
2018-10-07T16:41:15.272Z,97964.15
2018-10-07T16:43:47.763Z,97968.41
2018-10-07T16:46:20.187Z,97975.31
2018-10-07T16:48:52.700Z,97980.83
2018-10-07T16:51:25.262Z,97985.91
2018-10-07T16:53:57.938Z,97984.56
2018-10-07T16:56:30.718Z,97992.31
2018-10-07T16:59:03.426Z,97991.55
2018-10-07T17:01:36.255Z,98000.58
2018-10-07T17:04:08.866Z,98013.01
2018-10-07T17:06:41.395Z,98011.55
2018-10-07T17:09:14.136Z,98017.41
2018-10-07T17:11:46.612Z,98019.17
2018-10-07T17:14:19.322Z,98030.34
2018-10-07T17:16:51.922Z,98029.92
2018-10-07T17:19:24.540Z,98035.73
2018-10-07T17:21:57.020Z,98034.54
2018-10-07T17:24:29.833Z,98041.70
2018-10-07T17:27:02.891Z,98039.87
2018-10-07T17:29:35.588Z,98040.73
2018-10-07T17:32:08.078Z,98045.64
2018-10-07T17:34:40.749Z,98048.44
2018-10-07T17:37:13.213Z,98060.83
2018-10-07T17:39:45.585Z,98066.09
2018-10-07T17:42:18.005Z,98077.29
2018-10-07T17:44:50.758Z,98067.56
2018-10-07T17:47:23.398Z,98071.70
2018-10-07T17:49:55.839Z,98072.91
2018-10-07T17:52:28.283Z,98079.28
2018-10-07T17:55:02.505Z,98082.64
2018-10-07T17:57:35.719Z,98086.95
2018-10-07T18:00:08.923Z,98090.83
2018-10-07T18:02:41.388Z,98090.38
2018-10-07T18:05:14.147Z,98095.38
2018-10-07T18:07:46.505Z,98095.80
2018-10-07T18:10:18.926Z,98099.09
2018-10-07T18:12:51.456Z,98099.39
2018-10-07T18:15:23.928Z,98105.72
2018-10-07T18:17:56.338Z,98114.90
2018-10-07T18:20:28.770Z,98114.67
2018-10-07T18:23:01.497Z,98118.11
2018-10-07T18:25:43.474Z,98126.95
2018-10-07T18:28:16.011Z,98125.73
2018-10-07T18:30:48.440Z,98132.86
2018-10-07T18:33:20.981Z,98137.16
2018-10-07T18:35:53.745Z,98140.86
2018-10-07T18:38:26.182Z,98144.45
2018-10-07T18:40:58.952Z,98145.23
2018-10-07T18:43:31.925Z,98142.56
2018-10-07T18:46:04.379Z,98149.02
2018-10-07T18:48:37.389Z,98154.05
2018-10-07T18:51:10.595Z,98159.56
2018-10-07T18:53:43.540Z,98162.98
2018-10-07T18:56:16.047Z,98159.16
2018-10-07T18:58:48.537Z,98161.21
2018-10-07T19:01:21.045Z,98168.20
2018-10-07T19:03:53.600Z,98170.52
2018-10-07T19:06:26.366Z,98172.39
2018-10-07T19:08:59.830Z,98182.59
2018-10-07T19:11:32.250Z,98181.92
2018-10-07T19:14:04.749Z,98182.64
2018-10-07T19:16:38.143Z,98185.61
2018-10-07T19:19:11.031Z,98182.16
2018-10-07T19:21:43.858Z,98182.52
2018-10-07T19:24:16.370Z,98187.08
2018-10-07T19:26:48.886Z,98189.20
2018-10-07T19:29:21.393Z,98184.38
2018-10-07T19:31:53.783Z,98188.59
2018-10-07T19:34:26.289Z,98190.93
2018-10-07T19:36:59.058Z,98196.31
2018-10-07T19:39:31.630Z,98195.86
2018-10-07T19:42:03.997Z,98205.47
2018-10-07T19:44:36.565Z,98211.02
2018-10-07T19:47:09.576Z,98218.47
2018-10-07T19:49:42.502Z,98213.27
2018-10-07T19:52:15.334Z,98221.01
2018-10-07T19:54:47.908Z,98218.72
2018-10-07T19:57:20.331Z,98220.80
2018-10-07T19:59:52.723Z,98227.54
2018-10-07T20:02:25.066Z,98241.59
2018-10-07T20:04:57.629Z,98239.44
2018-10-07T20:07:30.285Z,98241.09
2018-10-07T20:10:02.833Z,98245.50
2018-10-07T20:12:35.488Z,98248.94
2018-10-07T20:15:09.044Z,98254.38
2018-10-07T20:17:42.105Z,98263.27
2018-10-07T20:20:14.775Z,98262.45
2018-10-07T20:22:47.215Z,98262.81
2018-10-07T20:25:19.897Z,98262.78
2018-10-07T20:27:52.582Z,98265.03
2018-10-07T20:30:26.057Z,98270.67
2018-10-07T20:32:59.043Z,98274.30
2018-10-07T20:35:31.666Z,98272.05
2018-10-07T20:38:04.415Z,98274.08
2018-10-07T20:40:37.183Z,98267.30
2018-10-07T20:43:09.506Z,98279.78
2018-10-07T20:45:41.834Z,98280.85
2018-10-07T20:48:14.340Z,98280.60
2018-10-07T20:50:47.168Z,98283.59
2018-10-07T20:53:19.571Z,98285.41
2018-10-07T20:55:52.965Z,98286.92
2018-10-07T20:58:26.307Z,98280.41
2018-10-07T21:00:59.259Z,98280.28
2018-10-07T21:03:31.784Z,98273.83
2018-10-07T21:06:04.208Z,98276.79
2018-10-07T21:08:36.718Z,98273.61
2018-10-07T21:11:09.161Z,98271.91
2018-10-07T21:13:41.572Z,98277.26
2018-10-07T21:16:14.086Z,98277.95
2018-10-07T21:18:46.866Z,98273.67
2018-10-07T21:21:19.296Z,98275.64
2018-10-07T21:23:51.595Z,98276.20
2018-10-07T21:26:25.178Z,98281.86
2018-10-07T21:28:57.665Z,98279.28
2018-10-07T21:31:30.193Z,98287.01
2018-10-07T21:34:02.731Z,98288.21
2018-10-07T21:36:35.053Z,98285.12
2018-10-07T21:39:08.414Z,98283.34
2018-10-07T21:41:40.869Z,98288.94
2018-10-07T21:44:13.088Z,98293.81
2018-10-07T21:46:45.626Z,98304.52
2018-10-07T21:49:18.474Z,98301.53
2018-10-07T21:51:50.918Z,98306.68
2018-10-07T21:54:25.894Z,98304.23
2018-10-07T21:56:58.851Z,98300.78
2018-10-07T21:59:31.429Z,98300.28
2018-10-07T22:02:03.742Z,98305.38
2018-10-07T22:04:36.154Z,98303.45
2018-10-07T22:07:08.449Z,98302.98
2018-10-07T22:09:40.781Z,98300.27
2018-10-07T22:12:13.075Z,98298.75
2018-10-07T22:14:45.929Z,98301.13
2018-10-07T22:17:18.845Z,98300.30
2018-10-07T22:19:51.250Z,98299.75
2018-10-07T22:22:24.525Z,98294.55
2018-10-07T22:24:57.748Z,98292.44
2018-10-07T22:27:31.358Z,98297.58
2018-10-07T22:30:03.978Z,98297.44
2018-10-07T22:32:36.277Z,98293.28
2018-10-07T22:35:08.630Z,98287.91
2018-10-07T22:37:40.943Z,98286.35
2018-10-07T22:40:13.275Z,98285.33
2018-10-07T22:42:46.104Z,98289.28
2018-10-07T22:45:19.015Z,98287.20
2018-10-07T22:47:51.289Z,98292.19
2018-10-07T22:50:24.536Z,98292.86
2018-10-07T22:52:58.164Z,98295.91
2018-10-07T22:55:30.907Z,98301.86
2018-10-07T22:58:03.337Z,98307.64
2018-10-07T23:00:35.955Z,98307.17
2018-10-07T23:03:08.232Z,98306.05
2018-10-07T23:05:40.586Z,98306.38
2018-10-07T23:08:12.854Z,98303.14
2018-10-07T23:10:45.572Z,98311.63
2018-10-07T23:13:18.014Z,98317.18
2018-10-07T23:15:50.378Z,98319.13
2018-10-07T23:18:23.024Z,98310.45
2018-10-07T23:20:56.943Z,98308.20
2018-10-07T23:23:30.038Z,98313.18
2018-10-07T23:26:02.620Z,98312.40
2018-10-07T23:28:34.938Z,98320.11
2018-10-07T23:31:07.197Z,98317.54
2018-10-07T23:33:39.539Z,98321.55
2018-10-07T23:36:11.794Z,98323.62
2018-10-07T23:38:44.098Z,98321.86
2018-10-07T23:41:16.753Z,98322.93
2018-10-07T23:43:49.435Z,98318.26
2018-10-07T23:46:21.794Z,98321.80
2018-10-07T23:48:54.842Z,98312.55
2018-10-07T23:51:28.034Z,98316.75
2018-10-07T23:54:00.958Z,98313.66
2018-10-07T23:56:33.521Z,98315.20
2018-10-07T23:59:06.254Z,98317.70
